createdAt,value
2019-04-20T08:45:34.632Z,10.58
2019-04-20T08:48:11.110Z,10.77
2019-04-20T08:50:47.060Z,11.25
2019-04-20T08:53:28.124Z,11.27
2019-04-20T08:55:50.113Z,11.04
2019-04-20T08:58:15.918Z,10.91
2019-04-20T09:00:56.511Z,11.16
2019-04-20T09:03:31.722Z,11.14
2019-04-20T09:06:19.319Z,10.93
2019-04-20T09:08:51.451Z,10.99
2019-04-20T09:11:44.136Z,11.12
2019-04-20T09:14:00.180Z,11.00
2019-04-20T09:16:45.632Z,11.00
2019-04-20T09:19:13.304Z,10.90
2019-04-20T09:21:55.166Z,10.88
2019-04-20T09:24:51.267Z,10.86
2019-04-20T09:27:14.225Z,10.75
2019-04-20T09:29:54.861Z,10.74
2019-04-20T09:32:34.324Z,10.89
2019-04-20T09:35:13.351Z,10.89
2019-04-20T09:37:53.398Z,10.63
2019-04-20T09:40:35.536Z,10.43
2019-04-20T09:42:55.816Z,10.64
2019-04-20T09:45:56.425Z,10.83
2019-04-20T09:48:38.935Z,11.08
2019-04-20T09:51:24.555Z,11.20
2019-04-20T09:53:50.590Z,11.18
2019-04-20T09:56:32.446Z,11.18
2019-04-20T09:59:18.909Z,11.30
2019-04-20T10:01:40.223Z,11.26
2019-04-20T10:04:07.593Z,11.13
2019-04-20T10:06:43.557Z,10.90
2019-04-20T10:09:21.313Z,10.86
2019-04-20T10:11:55.435Z,10.93
2019-04-20T10:14:30.904Z,10.93
2019-04-20T10:17:05.713Z,10.94
2019-04-20T10:19:43.210Z,10.88
2019-04-20T10:22:18.442Z,11.04
2019-04-20T10:24:57.159Z,11.04
2019-04-20T10:27:32.771Z,11.30
2019-04-20T10:30:08.213Z,11.30
2019-04-20T10:32:45.680Z,11.23
2019-04-20T10:35:19.772Z,11.09
2019-04-20T10:37:59.743Z,10.71
2019-04-20T10:40:48.690Z,10.79
2019-04-20T10:43:10.278Z,10.99
2019-04-20T10:45:46.680Z,11.09
2019-04-20T10:48:23.513Z,11.16
2019-04-20T10:51:05.144Z,11.16
2019-04-20T10:53:40.412Z,11.19
2019-04-20T10:56:15.835Z,11.33
2019-04-20T10:58:50.166Z,11.39
2019-04-20T11:01:25.373Z,11.16
2019-04-20T11:04:00.722Z,11.19
2019-04-20T11:06:34.961Z,11.25
2019-04-20T11:09:10.971Z,11.30
2019-04-20T11:11:46.140Z,11.23
2019-04-20T11:14:27.550Z,11.37
2019-04-20T11:16:58.435Z,11.33
2019-04-20T11:19:33.621Z,11.17
2019-04-20T11:22:08.427Z,11.03
2019-04-20T11:24:43.965Z,10.97
2019-04-20T11:27:20.298Z,10.85
2019-04-20T11:29:55.990Z,10.93
2019-04-20T11:32:30.402Z,10.87
2019-04-20T11:35:09.050Z,10.90
2019-04-20T11:37:40.413Z,10.96
2019-04-20T11:40:15.229Z,10.95
2019-04-20T11:42:50.067Z,10.96
2019-04-20T11:45:28.805Z,11.12
2019-04-20T11:48:03.748Z,11.05
2019-04-20T11:50:39.866Z,11.19
2019-04-20T11:53:15.426Z,11.10
2019-04-20T11:55:50.061Z,11.07
2019-04-20T11:58:27.772Z,10.94
2019-04-20T12:01:14.216Z,10.98
2019-04-20T12:03:56.419Z,11.01
2019-04-20T12:06:23.091Z,11.16
2019-04-20T12:08:58.892Z,11.02
2019-04-20T12:11:52.808Z,11.07
2019-04-20T12:14:10.392Z,10.96
2019-04-20T12:16:47.812Z,11.05
2019-04-20T12:19:24.913Z,11.04
2019-04-20T12:22:00.000Z,10.94
2019-04-20T12:24:33.857Z,11.06
2019-04-20T12:27:10.120Z,10.93
2019-04-20T12:29:44.132Z,10.99
2019-04-20T12:32:19.649Z,10.86
2019-04-20T12:34:54.242Z,10.71
2019-04-20T12:37:29.257Z,10.70
2019-04-20T12:40:05.007Z,10.70
2019-04-20T12:42:41.225Z,10.74
2019-04-20T12:45:15.754Z,10.76
2019-04-20T12:47:51.525Z,10.91
2019-04-20T12:50:27.670Z,10.99
2019-04-20T12:53:02.299Z,11.00
2019-04-20T12:55:36.806Z,11.12
2019-04-20T12:58:12.512Z,11.17
2019-04-20T13:00:49.878Z,11.23
2019-04-20T13:03:25.498Z,11.21
2019-04-20T13:06:01.837Z,11.05
2019-04-20T13:08:39.137Z,10.87
2019-04-20T13:11:22.551Z,10.84
2019-04-20T13:14:42.301Z,10.78
2019-04-20T13:17:16.764Z,10.69
2019-04-20T13:19:51.279Z,10.73
2019-04-20T13:22:25.956Z,10.66
2019-04-20T13:25:01.030Z,10.58
2019-04-20T13:27:36.653Z,10.49
2019-04-20T13:30:11.552Z,10.44
2019-04-20T13:32:45.713Z,10.38
2019-04-20T13:35:20.543Z,10.33
2019-04-20T13:37:56.198Z,10.43
2019-04-20T13:40:31.252Z,10.57
2019-04-20T13:43:06.086Z,10.60
2019-04-20T13:45:40.609Z,10.46
2019-04-20T13:48:16.914Z,10.33
2019-04-20T13:50:51.910Z,10.26
2019-04-20T13:53:27.514Z,10.28
2019-04-20T13:56:11.835Z,10.26
2019-04-20T13:59:05.830Z,10.10
2019-04-20T14:05:07.003Z,10.22
2019-04-20T14:07:41.982Z,10.38
2019-04-20T14:10:47.186Z,10.25
2019-04-20T14:13:25.848Z,10.12
2019-04-20T14:16:00.885Z,9.96
2019-04-20T14:18:35.364Z,9.84
2019-04-20T14:21:12.219Z,9.73
2019-04-20T14:23:53.034Z,9.77
2019-04-20T14:26:27.274Z,9.77
2019-04-20T14:29:03.042Z,9.64
2019-04-20T14:31:41.887Z,9.64
2019-04-20T14:34:17.444Z,9.57
2019-04-20T14:36:52.994Z,9.51
2019-04-20T14:39:28.012Z,9.41
2019-04-20T14:42:04.465Z,9.47
2019-04-20T14:44:39.478Z,9.46
2019-04-20T14:47:23.615Z,9.42
2019-04-20T14:50:00.773Z,9.52
2019-04-20T14:52:35.471Z,9.62
2019-04-20T14:55:12.423Z,9.55
2019-04-20T14:57:47.784Z,9.52
2019-04-20T15:00:53.388Z,9.56
2019-04-20T15:03:40.865Z,9.55
2019-04-20T15:06:17.764Z,9.39
2019-04-20T15:08:54.705Z,9.32
2019-04-20T15:11:30.794Z,9.27
2019-04-20T15:14:07.169Z,9.25
2019-04-20T15:16:42.724Z,9.26
2019-04-20T15:19:39.063Z,9.27
2019-04-20T15:22:53.773Z,9.25
2019-04-20T15:25:27.852Z,9.04
2019-04-20T15:28:02.812Z,9.10
2019-04-20T15:30:38.254Z,9.12
2019-04-20T15:33:14.965Z,9.00
2019-04-20T15:35:50.319Z,8.92
2019-04-20T15:38:25.420Z,8.93
2019-04-20T15:40:59.636Z,8.84
2019-04-20T15:43:35.346Z,8.71
2019-04-20T15:46:10.482Z,8.70
2019-04-20T15:48:46.162Z,8.69
2019-04-20T15:51:21.702Z,8.72
2019-04-20T15:53:57.835Z,8.72
2019-04-20T15:56:33.295Z,8.56
2019-04-20T15:59:08.424Z,8.63
2019-04-20T16:01:51.431Z,8.64
2019-04-20T16:04:45.335Z,8.65
2019-04-20T16:07:21.410Z,8.65
2019-04-20T16:09:56.891Z,8.59
2019-04-20T16:12:32.823Z,8.65
2019-04-20T16:15:07.474Z,8.57
2019-04-20T16:17:47.780Z,8.54
2019-04-20T16:20:25.045Z,8.47
2019-04-20T16:22:58.574Z,8.41
2019-04-20T16:25:43.842Z,8.44
2019-04-20T16:28:19.441Z,8.45
2019-04-20T16:31:01.609Z,8.25
2019-04-20T16:33:36.602Z,8.07
2019-04-20T16:36:18.771Z,7.99
2019-04-20T16:38:53.714Z,7.95
2019-04-20T16:41:36.170Z,7.94
2019-04-20T16:44:11.309Z,7.98
2019-04-20T16:46:45.884Z,7.98
2019-04-20T16:49:21.287Z,8.05
2019-04-20T16:51:57.141Z,8.13
2019-04-20T16:54:32.084Z,8.11
2019-04-20T16:57:08.262Z,8.09
2019-04-20T16:59:47.268Z,8.12
2019-04-20T17:02:19.138Z,8.04
2019-04-20T17:04:54.805Z,8.03
2019-04-20T17:07:42.921Z,7.93
2019-04-20T17:10:18.459Z,7.92
2019-04-20T17:12:53.914Z,7.94
2019-04-20T17:15:28.034Z,7.88
2019-04-20T17:18:03.396Z,7.80
2019-04-20T17:20:37.078Z,7.78
2019-04-20T17:23:11.276Z,7.75
2019-04-20T17:25:48.049Z,7.62
2019-04-20T17:28:44.982Z,7.55
2019-04-20T17:31:45.189Z,7.26
2019-04-20T17:34:36.475Z,7.36
2019-04-20T17:36:57.036Z,7.28
2019-04-20T17:39:45.515Z,7.27
2019-04-20T17:42:23.965Z,7.24
2019-04-20T17:44:56.424Z,7.17
2019-04-20T17:47:43.202Z,7.03
2019-04-20T17:50:20.040Z,6.96
2019-04-20T17:52:57.881Z,6.90
2019-04-20T17:55:30.557Z,6.95
2019-04-20T17:57:57.422Z,6.87
2019-04-20T18:01:08.677Z,6.87
2019-04-20T18:04:13.325Z,6.87
2019-04-20T18:06:35.835Z,6.85
2019-04-20T18:09:06.648Z,6.85
2019-04-20T18:11:37.413Z,6.71
2019-04-20T18:14:28.624Z,6.71
2019-04-20T18:17:11.470Z,6.58
2019-04-20T18:19:38.716Z,6.49
2019-04-20T18:22:13.974Z,6.51
2019-04-20T18:25:10.442Z,6.46
2019-04-20T18:27:41.450Z,6.45
2019-04-20T18:30:15.488Z,6.48
2019-04-20T18:32:37.984Z,6.44
2019-04-20T18:35:20.243Z,6.31
2019-04-20T18:38:00.703Z,6.30
2019-04-20T18:40:38.560Z,6.25
2019-04-20T18:43:14.495Z,6.31
2019-04-20T18:46:05.384Z,6.25
2019-04-20T18:48:43.624Z,6.23
2019-04-20T18:50:57.454Z,6.23
2019-04-20T18:53:37.456Z,6.25
2019-04-20T18:56:08.158Z,6.19
2019-04-20T18:58:45.138Z,6.16
2019-04-20T19:01:19.267Z,6.20
2019-04-20T19:03:54.053Z,6.10
2019-04-20T19:06:29.928Z,6.14
2019-04-20T19:09:09.480Z,6.11
2019-04-20T19:11:49.540Z,6.08
2019-04-20T19:14:44.228Z,6.05
2019-04-20T19:17:49.701Z,6.08
2019-04-20T19:20:30.682Z,5.96
2019-04-20T19:23:10.377Z,5.93
2019-04-20T19:25:45.724Z,5.95
2019-04-20T19:28:25.415Z,5.83
2019-04-20T19:31:12.341Z,5.81
2019-04-20T19:33:57.449Z,5.84
2019-04-20T19:36:19.946Z,5.77
2019-04-20T19:39:01.708Z,5.80
2019-04-20T19:41:37.811Z,5.84
2019-04-20T19:44:14.802Z,5.84
2019-04-20T19:46:53.783Z,5.84
2019-04-20T19:49:25.064Z,5.84
2019-04-20T19:52:20.699Z,5.73
2019-04-20T19:54:46.637Z,5.79
2019-04-20T19:57:15.896Z,5.76
2019-04-20T19:59:41.220Z,5.81
2019-04-20T20:02:11.769Z,5.85
2019-04-20T20:04:52.208Z,5.78
2019-04-20T20:07:32.191Z,5.78
2019-04-20T20:10:06.006Z,5.77
2019-04-20T20:12:39.800Z,5.71
2019-04-20T20:15:23.749Z,5.69
2019-04-20T20:18:14.061Z,5.66
2019-04-20T20:20:47.369Z,5.60
2019-04-20T20:23:05.426Z,5.61
2019-04-20T20:25:44.830Z,5.57
2019-04-20T20:28:31.155Z,5.57
2019-04-20T20:31:06.044Z,5.54
2019-04-20T20:33:43.890Z,5.44
2019-04-20T20:36:14.768Z,5.47
2019-04-20T20:38:50.219Z,5.45
2019-04-20T20:41:26.268Z,5.46
2019-04-20T20:44:03.589Z,5.51
2019-04-20T20:46:39.612Z,5.41
2019-04-20T20:49:28.514Z,5.40
2019-04-20T20:52:06.727Z,5.44
2019-04-20T20:54:36.393Z,5.45
2019-04-20T20:57:03.719Z,5.37
2019-04-20T20:59:42.750Z,5.40
2019-04-20T21:02:18.242Z,5.39
2019-04-20T21:04:46.295Z,5.37
2019-04-20T21:07:20.743Z,5.39
2019-04-20T21:09:54.457Z,5.46
2019-04-20T21:12:28.881Z,5.42
2019-04-20T21:15:09.230Z,5.29
2019-04-20T21:18:04.486Z,5.26
2019-04-20T21:20:27.606Z,5.32
2019-04-20T21:23:07.303Z,5.24
2019-04-20T21:25:44.193Z,5.26
2019-04-20T21:28:15.641Z,5.33
2019-04-20T21:30:51.819Z,5.32
2019-04-20T21:33:29.496Z,5.33
2019-04-20T21:36:01.213Z,5.33
2019-04-20T21:38:39.324Z,5.34
2019-04-20T21:41:15.028Z,5.29
2019-04-20T21:43:46.404Z,5.28
2019-04-20T21:46:20.935Z,5.27
2019-04-20T21:49:05.628Z,5.22
2019-04-20T21:51:40.271Z,5.20
2019-04-20T21:54:06.680Z,5.20
2019-04-20T21:56:51.227Z,5.24
2019-04-20T21:59:27.392Z,5.15
2019-04-20T22:02:06.554Z,5.22
2019-04-20T22:04:35.614Z,5.22
2019-04-20T22:07:10.330Z,5.22
2019-04-20T22:09:48.942Z,5.17
2019-04-20T22:12:20.255Z,5.20
2019-04-20T22:15:07.663Z,5.26
2019-04-20T22:17:38.053Z,5.27
2019-04-20T22:20:24.759Z,5.23
2019-04-20T22:22:59.854Z,5.24
2019-04-20T22:25:42.628Z,5.18
2019-04-20T22:28:01.822Z,5.07
2019-04-20T22:30:37.972Z,5.14
2019-04-20T22:33:27.122Z,5.10
2019-04-20T22:36:01.108Z,5.15
2019-04-20T22:38:59.807Z,5.14
2019-04-20T22:41:32.369Z,5.12
2019-04-20T22:44:12.153Z,5.16
2019-04-20T22:46:43.763Z,5.15
2019-04-20T22:49:38.943Z,5.17
2019-04-20T22:52:05.294Z,5.12
2019-04-20T22:54:47.833Z,5.07
2019-04-20T22:57:19.495Z,5.17
2019-04-20T22:59:52.114Z,5.12
2019-04-20T23:02:22.579Z,5.15
2019-04-20T23:04:55.030Z,5.12
2019-04-20T23:07:29.072Z,5.13
2019-04-20T23:10:05.450Z,5.12
2019-04-20T23:12:39.912Z,5.15
2019-04-20T23:15:14.740Z,5.10
2019-04-20T23:17:51.784Z,5.08
2019-04-20T23:20:27.677Z,5.07
2019-04-20T23:23:00.896Z,5.01
2019-04-20T23:25:35.247Z,4.97
2019-04-20T23:28:14.058Z,4.89
2019-04-20T23:30:47.409Z,4.88
2019-04-20T23:33:23.330Z,4.89
2019-04-20T23:36:11.155Z,4.86
2019-04-20T23:38:49.044Z,4.84
2019-04-20T23:41:22.206Z,4.83
2019-04-20T23:44:08.856Z,4.87
2019-04-20T23:47:13.768Z,4.85
2019-04-20T23:50:11.332Z,4.84
2019-04-20T23:52:49.722Z,4.77
2019-04-20T23:55:05.989Z,4.76
2019-04-20T23:57:37.959Z,4.66
